Time;durP1;ratioP1;P1;durP2;ratioP2;P2;SDS_P1;SDS_P2;PMS_P1;PMS_P2;Temp;Humidity;BMP_temperature;BMP_pressure;BME280_temperature;BME280_humidity;BME280_pressure;Samples;Min_cycle;Max_cycle;Signal;HPM_P1;HPM_P2
2023/06/16 00:02:23;;;;;;;10.98;9.80;;;18.20;96.20;;;;;;5054881;28;20044;-54
2023/06/16 00:04:50;;;;;;;14.52;9.15;;;18.20;96.10;;;;;;5054599;28;20069;-52
2023/06/16 00:07:19;;;;;;;13.32;9.43;;;18.20;96.40;;;;;;5054508;28;20095;-53
2023/06/16 00:09:47;;;;;;;13.43;9.45;;;18.10;96.70;;;;;;5054423;28;20049;-50
2023/06/16 00:12:13;;;;;;;11.57;8.50;;;18.10;96.60;;;;;;5054535;28;20037;-49
2023/06/16 00:14:40;;;;;;;10.85;8.30;;;18.00;96.80;;;;;;5054590;28;20041;-53
2023/06/16 00:17:08;;;;;;;12.82;8.98;;;18.00;96.70;;;;;;5054457;28;20037;-50
2023/06/16 00:19:35;;;;;;;13.60;8.70;;;17.90;96.90;;;;;;5054641;28;20045;-54
2023/06/16 00:22:03;;;;;;;13.43;8.88;;;17.90;96.90;;;;;;5053171;28;20040;-55
2023/06/16 00:24:30;;;;;;;13.05;8.60;;;17.80;97.00;;;;;;5054130;28;20036;-51
2023/06/16 00:26:57;;;;;;;11.85;8.45;;;17.80;97.20;;;;;;5054281;28;20076;-49
2023/06/16 00:29:27;;;;;;;13.50;9.23;;;17.70;97.20;;;;;;5069701;28;20052;-52
2023/06/16 00:31:55;;;;;;;11.10;8.38;;;17.70;97.50;;;;;;5054540;28;20444;-53
2023/06/16 00:34:22;;;;;;;13.07;8.35;;;17.70;97.40;;;;;;5052784;28;20098;-55
2023/06/16 00:36:49;;;;;;;12.05;8.35;;;17.60;97.40;;;;;;5054058;28;20041;-49
2023/06/16 00:39:16;;;;;;;12.27;8.00;;;17.60;97.40;;;;;;5054498;28;20048;-52
2023/06/16 00:41:43;;;;;;;14.07;7.88;;;17.50;97.50;;;;;;5054447;28;20529;-50
2023/06/16 00:44:09;;;;;;;12.43;8.05;;;17.50;97.50;;;;;;5054108;28;20049;-52
2023/06/16 00:46:36;;;;;;;11.95;8.77;;;17.40;97.60;;;;;;5053387;28;20447;-53
2023/06/16 00:49:03;;;;;;;13.48;8.55;;;17.30;97.50;;;;;;5052470;28;20049;-51
2023/06/16 00:51:30;;;;;;;11.95;9.00;;;17.30;97.60;;;;;;5069301;28;20043;-53
2023/06/16 00:53:57;;;;;;;11.57;8.65;;;17.20;97.60;;;;;;5052577;28;20132;-49
2023/06/16 00:56:26;;;;;;;9.95;8.13;;;17.10;97.80;;;;;;5053687;28;20041;-53
2023/06/16 00:58:52;;;;;;;12.20;8.65;;;17.10;98.00;;;;;;5053646;28;20061;-51
2023/06/16 01:01:19;;;;;;;12.27;9.02;;;17.10;97.80;;;;;;5052589;28;20041;-51
2023/06/16 01:03:46;;;;;;;12.75;8.68;;;17.10;97.80;;;;;;5053317;28;20517;-52
2023/06/16 01:06:13;;;;;;;13.32;9.77;;;17.10;97.80;;;;;;5053727;28;20449;-52
2023/06/16 01:08:40;;;;;;;11.68;9.93;;;17.00;97.80;;;;;;5068668;28;20037;-51
2023/06/16 01:11:07;;;;;;;10.90;9.50;;;16.90;98.00;;;;;;5053664;28;20467;-50
2023/06/16 01:13:34;;;;;;;11.98;9.02;;;16.80;98.20;;;;;;5053472;28;20455;-51
2023/06/16 01:16:01;;;;;;;13.05;8.68;;;16.80;98.40;;;;;;5053482;28;20037;-50
2023/06/16 01:18:27;;;;;;;10.27;8.48;;;16.80;98.40;;;;;;5052383;28;20041;-50
2023/06/16 01:20:54;;;;;;;11.20;8.65;;;16.70;98.50;;;;;;5053290;28;20116;-55
2023/06/16 01:23:25;;;;;;;11.45;9.13;;;16.60;98.70;;;;;;5051920;28;20103;-51
2023/06/16 01:25:53;;;;;;;13.45;8.73;;;16.60;98.80;;;;;;5053824;28;20056;-53
2023/06/16 01:28:21;;;;;;;11.20;8.30;;;16.70;98.50;;;;;;5053213;28;20044;-50
2023/06/16 01:30:50;;;;;;;13.60;8.38;;;16.80;98.30;;;;;;5052078;28;20045;-52
2023/06/16 01:33:17;;;;;;;10.20;8.00;;;16.80;98.40;;;;;;5035718;28;20128;-49
2023/06/16 01:35:45;;;;;;;8.98;8.07;;;16.80;98.20;;;;;;5053236;28;20215;-49
2023/06/16 01:38:11;;;;;;;9.18;7.65;;;16.80;98.20;;;;;;5052334;28;20049;-49
2023/06/16 01:40:38;;;;;;;9.93;7.90;;;16.80;98.20;;;;;;5052351;28;20051;-54
2023/06/16 01:43:05;;;;;;;11.95;7.75;;;16.70;98.10;;;;;;5053311;28;20056;-48
2023/06/16 01:45:32;;;;;;;14.07;7.80;;;16.70;98.10;;;;;;5052162;28;20510;-49
2023/06/16 01:47:58;;;;;;;10.80;7.53;;;16.70;98.20;;;;;;5069056;28;20052;-52
2023/06/16 01:50:25;;;;;;;10.73;8.20;;;16.70;98.40;;;;;;5053598;28;20037;-48
2023/06/16 01:52:52;;;;;;;10.45;7.07;;;16.50;98.50;;;;;;5053515;28;20045;-52
2023/06/16 01:55:19;;;;;;;11.65;8.27;;;16.50;98.60;;;;;;5053149;28;20484;-53
2023/06/16 01:57:47;;;;;;;9.52;7.68;;;16.50;98.70;;;;;;5052049;28;20044;-52
2023/06/16 02:00:14;;;;;;;12.85;7.70;;;16.50;98.60;;;;;;5072526;28;20472;-52
2023/06/16 02:02:41;;;;;;;10.52;8.07;;;16.50;98.50;;;;;;5056718;28;20044;-51
2023/06/16 02:05:10;;;;;;;11.40;7.93;;;16.40;98.50;;;;;;5057041;28;20087;-50
2023/06/16 02:07:38;;;;;;;9.68;7.50;;;16.50;98.40;;;;;;5055967;28;20033;-52
2023/06/16 02:10:05;;;;;;;8.73;7.47;;;16.50;98.40;;;;;;5072548;28;20037;-51
2023/06/16 02:12:32;;;;;;;13.05;8.10;;;16.50;98.30;;;;;;5055521;28;20048;-53
2023/06/16 02:14:59;;;;;;;11.30;8.35;;;16.50;98.20;;;;;;5056889;28;20091;-52
2023/06/16 02:17:27;;;;;;;12.63;7.93;;;16.40;98.20;;;;;;5057016;28;20561;-54
2023/06/16 02:19:54;;;;;;;10.32;7.63;;;16.40;98.20;;;;;;5056713;28;20443;-50
2023/06/16 02:22:21;;;;;;;9.98;8.27;;;16.40;98.20;;;;;;5056822;28;20053;-50
2023/06/16 02:24:48;;;;;;;10.43;7.70;;;16.30;98.30;;;;;;5056839;28;20415;-50
2023/06/16 02:27:18;;;;;;;9.35;7.63;;;16.30;98.50;;;;;;5055371;28;20052;-52
2023/06/16 02:29:46;;;;;;;10.77;8.10;;;16.20;98.80;;;;;;5056616;28;20044;-49
2023/06/16 02:32:13;;;;;;;14.13;8.20;;;16.20;98.70;;;;;;5055439;28;20041;-49
2023/06/16 02:34:43;;;;;;;9.25;8.07;;;16.20;98.70;;;;;;5055064;28;20049;-51
2023/06/16 02:37:11;;;;;;;12.93;8.15;;;16.20;98.90;;;;;;5055374;28;20127;-52
2023/06/16 02:39:38;;;;;;;9.38;7.55;;;16.10;98.90;;;;;;5055092;28;20065;-50
2023/06/16 02:42:05;;;;;;;10.27;6.97;;;16.10;98.90;;;;;;5072102;28;20045;-49
2023/06/16 02:44:32;;;;;;;11.10;6.88;;;16.10;98.90;;;;;;5055181;28;20156;-52
2023/06/16 02:47:01;;;;;;;11.38;7.78;;;16.10;99.00;;;;;;5056340;28;20127;-51
2023/06/16 02:49:28;;;;;;;10.98;8.07;;;16.00;99.00;;;;;;5056418;28;20073;-52
2023/06/16 02:51:56;;;;;;;10.00;7.50;;;16.00;99.10;;;;;;5054686;28;20102;-51
2023/06/16 02:54:23;;;;;;;14.40;7.93;;;16.00;99.20;;;;;;5054947;28;20095;-49
2023/06/16 02:56:51;;;;;;;10.30;7.53;;;16.00;99.10;;;;;;5055001;28;20091;-52
2023/06/16 02:59:23;;;;;;;10.07;7.45;;;15.90;99.20;;;;;;5054407;28;20411;-50
2023/06/16 03:01:49;;;;;;;10.20;7.72;;;15.90;99.40;;;;;;5054681;28;20052;-50
2023/06/16 03:04:20;;;;;;;10.60;7.80;;;15.80;99.50;;;;;;5054766;28;20060;-47
2023/06/16 03:06:57;;;;;;;9.43;7.75;;;15.80;99.50;;;;;;5055868;28;20057;-49
2023/06/16 03:09:32;;;;;;;12.38;7.93;;;15.80;99.40;;;;;;5053768;28;20096;-47
2023/06/16 03:12:00;;;;;;;10.32;7.45;;;15.80;99.40;;;;;;5053912;28;20049;-48
2023/06/16 03:14:32;;;;;;;9.50;7.20;;;15.80;99.50;;;;;;5054778;28;20060;-51
2023/06/16 03:17:11;;;;;;;11.15;7.88;;;15.70;99.70;;;;;;5054546;28;20047;-50
2023/06/16 03:19:39;;;;;;;12.25;7.43;;;15.70;99.70;;;;;;5071245;28;20094;-50
2023/06/16 03:22:06;;;;;;;15.02;7.28;;;15.60;99.90;;;;;;5054194;28;20076;-46
2023/06/16 03:24:41;;;;;;;8.80;7.45;;;15.60;99.90;;;;;;5070810;28;20424;-47
2023/06/16 03:27:08;;;;;;;10.57;7.35;;;15.60;99.70;;;;;;5055202;28;20041;-47
2023/06/16 03:29:43;;;;;;;;;;;15.60;99.90;;;;;;5055895;28;20037;-50
2023/06/16 03:32:10;;;;;;;10.10;7.10;;;15.50;99.90;;;;;;5054223;28;19920;-46
2023/06/16 03:34:38;;;;;;;12.02;7.57;;;15.50;99.90;;;;;;5070859;28;20045;-52
2023/06/16 03:37:05;;;;;;;11.48;7.20;;;15.40;99.90;;;;;;5054534;28;20094;-46
2023/06/16 03:39:36;;;;;;;10.35;7.82;;;15.40;99.90;;;;;;5054073;28;20060;-47
2023/06/16 03:42:03;;;;;;;10.13;7.68;;;15.40;99.90;;;;;;5055013;28;20385;-48
2023/06/16 03:44:30;;;;;;;10.38;7.80;;;15.40;99.90;;;;;;5055294;28;20110;-49
2023/06/16 03:46:57;;;;;;;9.65;7.32;;;15.40;99.90;;;;;;5055109;28;20051;-49
2023/06/16 03:49:23;;;;;;;10.32;7.55;;;15.40;99.90;;;;;;5055161;28;20439;-47
2023/06/16 03:51:51;;;;;;;13.32;8.13;;;15.40;99.90;;;;;;5053859;28;20083;-49
2023/06/16 03:54:19;;;;;;;11.10;7.93;;;15.40;99.90;;;;;;5055233;28;20405;-48
2023/06/16 03:56:46;;;;;;;13.52;7.68;;;15.40;99.90;;;;;;5054752;28;20040;-47
2023/06/16 03:59:13;;;;;;;15.45;8.07;;;15.40;99.90;;;;;;5054858;28;20053;-47
2023/06/16 04:01:41;;;;;;;9.60;7.25;;;15.30;99.90;;;;;;5053841;28;20049;-46
2023/06/16 04:04:09;;;;;;;13.50;7.68;;;15.40;99.90;;;;;;5054864;28;20116;-48
2023/06/16 04:06:36;;;;;;;12.27;8.13;;;15.40;99.90;;;;;;5054990;28;20496;-46
2023/06/16 04:09:04;;;;;;;8.60;7.43;;;15.40;99.90;;;;;;5053331;28;20500;-48
2023/06/16 04:11:32;;;;;;;11.82;7.75;;;15.40;99.90;;;;;;5070072;28;20041;-51
2023/06/16 04:13:59;;;;;;;8.80;7.80;;;15.30;99.90;;;;;;5053283;28;20095;-48
2023/06/16 04:16:26;;;;;;;11.40;7.95;;;15.20;99.90;;;;;;5053610;28;20041;-51
2023/06/16 04:18:55;;;;;;;10.20;7.50;;;15.20;99.90;;;;;;5053435;28;20048;-47
2023/06/16 04:21:22;;;;;;;10.63;8.63;;;15.20;99.90;;;;;;5069970;28;20053;-49
2023/06/16 04:23:49;;;;;;;12.25;8.48;;;15.30;99.90;;;;;;5053477;28;20043;-47
2023/06/16 04:26:18;;;;;;;10.90;8.30;;;15.30;99.90;;;;;;5053652;28;20057;-48
2023/06/16 04:28:53;;;;;;;9.95;7.88;;;15.30;99.90;;;;;;5070153;28;20041;-47
2023/06/16 04:31:22;;;;;;;;;;;15.40;99.90;;;;;;5053718;28;20404;-47
2023/06/16 04:33:48;;;;;;;9.40;8.05;;;15.40;99.90;;;;;;5069928;28;19964;-49
2023/06/16 04:36:17;;;;;;;9.52;7.07;;;15.60;99.90;;;;;;5053567;28;20444;-46
2023/06/16 04:38:44;;;;;;;11.27;7.78;;;15.70;99.90;;;;;;5052855;28;20048;-52
2023/06/16 04:41:11;;;;;;;11.48;7.90;;;15.90;99.90;;;;;;5052868;28;20041;-48
2023/06/16 04:43:38;;;;;;;11.13;7.85;;;15.90;99.90;;;;;;5054371;28;20475;-49
2023/06/16 04:46:04;;;;;;;10.65;7.88;;;16.10;99.90;;;;;;5054470;28;20033;-48
2023/06/16 04:48:32;;;;;;;15.18;8.35;;;16.20;99.90;;;;;;5052755;28;20447;-49
2023/06/16 04:50:59;;;;;;;11.73;7.57;;;16.30;99.70;;;;;;5054052;28;20368;-50
2023/06/16 04:53:27;;;;;;;11.18;8.13;;;16.40;99.60;;;;;;5052953;28;20091;-47
2023/06/16 04:55:54;;;;;;;11.48;8.43;;;16.50;99.30;;;;;;5052870;28;20559;-47
2023/06/16 04:58:20;;;;;;;15.27;8.30;;;16.60;99.30;;;;;;5053806;28;20052;-47
2023/06/16 05:00:47;;;;;;;10.68;7.95;;;16.70;99.20;;;;;;5053941;28;20498;-50
2023/06/16 05:03:14;;;;;;;10.98;7.60;;;16.80;99.00;;;;;;5052863;28;20045;-54
2023/06/16 05:05:41;;;;;;;10.38;7.85;;;17.00;98.90;;;;;;5052765;28;20377;-49
2023/06/16 05:08:08;;;;;;;12.65;7.70;;;17.00;98.60;;;;;;5052646;28;20059;-47
2023/06/16 05:10:35;;;;;;;12.90;8.00;;;17.10;98.60;;;;;;5069238;28;20056;-47
2023/06/16 05:13:02;;;;;;;13.00;7.75;;;17.20;98.60;;;;;;5052361;28;20423;-46
2023/06/16 05:15:29;;;;;;;9.00;7.10;;;17.30;98.50;;;;;;5052910;28;20127;-50
2023/06/16 05:17:56;;;;;;;9.45;7.53;;;17.40;98.20;;;;;;5052792;28;20037;-50
2023/06/16 05:20:23;;;;;;;11.15;7.25;;;17.50;98.20;;;;;;5053655;28;20070;-49
2023/06/16 05:22:50;;;;;;;10.00;7.35;;;17.60;98.10;;;;;;5069516;28;20041;-49
2023/06/16 05:25:17;;;;;;;11.50;7.40;;;17.70;97.90;;;;;;5053590;28;20127;-49
2023/06/16 05:27:44;;;;;;;12.90;7.63;;;17.70;98.00;;;;;;5069063;28;20099;-52
2023/06/16 05:30:11;;;;;;;12.50;7.47;;;17.80;97.50;;;;;;5052209;28;20051;-50
2023/06/16 05:32:38;;;;;;;11.68;7.50;;;17.90;97.20;;;;;;5052168;28;20071;-51
2023/06/16 05:35:07;;;;;;;10.60;7.05;;;18.00;97.30;;;;;;5073166;28;20373;-48
2023/06/16 05:37:35;;;;;;;11.02;7.07;;;18.00;96.60;;;;;;5056338;28;20041;-50
2023/06/16 05:40:03;;;;;;;8.00;6.78;;;18.10;96.70;;;;;;5056715;28;20467;-46
2023/06/16 05:42:31;;;;;;;7.45;5.88;;;18.20;96.60;;;;;;5056469;28;20041;-46
2023/06/16 05:44:59;;;;;;;12.80;6.65;;;18.30;96.40;;;;;;5056320;28;20045;-49
2023/06/16 05:47:26;;;;;;;6.47;5.68;;;18.30;96.10;;;;;;5056114;28;20053;-47
2023/06/16 05:49:57;;;;;;;11.70;6.28;;;18.40;96.00;;;;;;5056396;28;20037;-50
2023/06/16 05:52:24;;;;;;;14.88;6.15;;;18.50;95.30;;;;;;5056134;28;20041;-50
2023/06/16 05:54:51;;;;;;;7.82;5.90;;;18.60;95.20;;;;;;5073119;28;20045;-49
2023/06/16 05:57:26;;;;;;;8.82;6.07;;;18.60;95.20;;;;;;5057729;28;20045;-51
2023/06/16 05:59:53;;;;;;;8.93;5.90;;;18.60;94.70;;;;;;5072671;28;20085;-49
2023/06/16 06:02:20;;;;;;;8.05;6.28;;;18.70;94.80;;;;;;5055895;28;20045;-50
2023/06/16 06:04:48;;;;;;;11.68;6.18;;;18.70;94.80;;;;;;5057039;28;20040;-46
2023/06/16 06:07:15;;;;;;;13.25;6.05;;;18.70;94.90;;;;;;5056351;28;20049;-49
2023/06/16 06:09:42;;;;;;;11.23;6.38;;;18.80;94.80;;;;;;5055574;28;20079;-49
2023/06/16 06:12:10;;;;;;;15.05;6.32;;;18.80;94.80;;;;;;5055911;28;20037;-48
2023/06/16 06:14:37;;;;;;;8.70;6.38;;;18.70;95.00;;;;;;5056013;28;20422;-50
2023/06/16 06:17:04;;;;;;;10.98;6.35;;;18.70;95.10;;;;;;5057333;28;20057;-49
2023/06/16 06:19:31;;;;;;;13.45;5.85;;;18.70;95.30;;;;;;5057040;28;20124;-47
2023/06/16 06:21:59;;;;;;;10.25;6.43;;;18.70;95.30;;;;;;5072295;28;20139;-50
2023/06/16 06:24:26;;;;;;;8.98;6.07;;;18.70;95.30;;;;;;5056653;28;20040;-51
2023/06/16 06:26:54;;;;;;;11.73;6.60;;;18.60;95.50;;;;;;5055823;28;20055;-52
2023/06/16 06:29:21;;;;;;;13.57;6.78;;;18.60;95.60;;;;;;5055715;28;20037;-50
2023/06/16 06:31:47;;;;;;;12.10;7.53;;;18.50;95.50;;;;;;5038958;28;20067;-49
2023/06/16 06:34:14;;;;;;;9.27;6.90;;;18.50;95.70;;;;;;5072240;28;20420;-49
2023/06/16 06:36:42;;;;;;;11.18;6.60;;;18.50;96.00;;;;;;5057079;28;20148;-50
2023/06/16 06:39:08;;;;;;;8.75;6.35;;;18.50;96.00;;;;;;5055656;28;20053;-49
2023/06/16 06:41:35;;;;;;;13.60;6.15;;;18.50;95.90;;;;;;5071510;28;20040;-52
2023/06/16 06:44:11;;;;;;;11.38;7.30;;;18.50;96.00;;;;;;5054160;28;20443;-51
2023/06/16 06:46:58;;;;;;;9.30;7.10;;;18.60;96.00;;;;;;5056644;28;20041;-49
2023/06/16 06:49:25;;;;;;;8.80;5.95;;;18.50;95.90;;;;;;5054941;28;20041;-49
2023/06/16 06:51:52;;;;;;;10.52;6.40;;;18.50;95.80;;;;;;5055312;28;20484;-48
2023/06/16 06:54:18;;;;;;;10.57;6.50;;;18.60;95.90;;;;;;5056721;28;20076;-51
2023/06/16 06:56:45;;;;;;;8.02;5.93;;;18.60;95.80;;;;;;5056059;28;20033;-50
2023/06/16 06:59:12;;;;;;;10.80;5.78;;;18.60;95.70;;;;;;5056085;28;20523;-49
2023/06/16 07:01:39;;;;;;;10.45;5.88;;;18.50;95.20;;;;;;5055739;28;20506;-54
2023/06/16 07:04:06;;;;;;;11.45;5.55;;;18.50;95.40;;;;;;5056060;28;20103;-46
2023/06/16 07:06:33;;;;;;;9.48;5.15;;;18.50;95.30;;;;;;5056156;28;20075;-46
2023/06/16 07:09:00;;;;;;;7.15;4.75;;;18.50;94.60;;;;;;5055768;28;20036;-48
2023/06/16 07:11:26;;;;;;;8.20;5.07;;;18.50;94.60;;;;;;5056025;28;20047;-48
2023/06/16 07:13:53;;;;;;;6.80;4.65;;;18.50;94.30;;;;;;5055834;28;20045;-51
2023/06/16 07:16:20;;;;;;;9.48;4.93;;;18.60;94.00;;;;;;5054461;28;20090;-50
2023/06/16 07:18:47;;;;;;;9.10;4.45;;;18.60;93.70;;;;;;5055973;28;20041;-48
2023/06/16 07:21:13;;;;;;;7.90;3.88;;;18.70;93.70;;;;;;5056246;28;20049;-51
2023/06/16 07:23:40;;;;;;;6.88;4.38;;;18.70;93.30;;;;;;5055541;28;20081;-48
2023/06/16 07:26:07;;;;;;;8.60;4.50;;;18.80;92.80;;;;;;5054622;28;20427;-52
2023/06/16 07:28:34;;;;;;;9.32;4.28;;;18.90;92.40;;;;;;5055948;28;20037;-50
2023/06/16 07:31:01;;;;;;;7.22;3.97;;;18.90;92.10;;;;;;5055633;28;20033;-48
2023/06/16 07:33:28;;;;;;;8.60;4.40;;;19.00;92.20;;;;;;5055821;28;20072;-49
2023/06/16 07:35:54;;;;;;;7.63;4.00;;;19.10;92.30;;;;;;5055567;28;20037;-54
2023/06/16 07:38:21;;;;;;;7.25;4.35;;;19.10;92.20;;;;;;5055319;28;20388;-50
2023/06/16 07:40:48;;;;;;;5.95;4.20;;;19.20;91.70;;;;;;5055401;28;20043;-50
2023/06/16 07:43:15;;;;;;;7.32;4.50;;;19.30;91.30;;;;;;5055451;28;20072;-49
2023/06/16 07:45:42;;;;;;;11.90;4.82;;;19.30;91.00;;;;;;5055244;28;20041;-52
2023/06/16 07:48:10;;;;;;;8.20;4.45;;;19.40;91.10;;;;;;5055537;28;20178;-52
2023/06/16 07:50:36;;;;;;;8.05;4.40;;;19.40;91.20;;;;;;5055349;28;20396;-52
2023/06/16 07:53:03;;;;;;;8.52;4.28;;;19.40;91.00;;;;;;5055040;28;20044;-54
2023/06/16 07:55:30;;;;;;;12.50;4.95;;;19.50;90.50;;;;;;5054781;28;20040;-52
2023/06/16 07:57:57;;;;;;;11.02;4.45;;;19.60;90.60;;;;;;5054792;28;20492;-49
2023/06/16 08:00:24;;;;;;;8.10;4.32;;;19.60;90.70;;;;;;5055075;28;20082;-49
2023/06/16 08:02:51;;;;;;;9.60;4.60;;;19.60;90.60;;;;;;5054918;28;20064;-52
2023/06/16 08:05:18;;;;;;;10.00;4.50;;;19.70;90.50;;;;;;5055217;28;20045;-50
2023/06/16 08:07:45;;;;;;;10.45;4.63;;;19.80;90.20;;;;;;5055110;28;20056;-50
2023/06/16 08:10:12;;;;;;;8.35;3.70;;;19.80;90.10;;;;;;5055060;28;20463;-55
2023/06/16 08:12:41;;;;;;;10.38;3.40;;;19.90;88.30;;;;;;5054578;28;20080;-49
2023/06/16 08:15:08;;;;;;;6.82;3.25;;;20.00;88.40;;;;;;5054864;28;20037;-49
2023/06/16 08:17:36;;;;;;;7.07;2.92;;;20.00;86.30;;;;;;5054631;28;20047;-49
2023/06/16 08:20:04;;;;;;;7.82;2.90;;;20.00;85.90;;;;;;5054354;28;20440;-54
2023/06/16 08:22:31;;;;;;;5.78;3.03;;;20.10;84.20;;;;;;5054296;28;20070;-52
2023/06/16 08:24:58;;;;;;;9.07;3.05;;;20.10;84.40;;;;;;5054405;28;20049;-51
2023/06/16 08:27:25;;;;;;;7.55;3.20;;;20.10;83.40;;;;;;5054588;28;20120;-50
2023/06/16 08:29:52;;;;;;;5.82;3.00;;;20.10;84.00;;;;;;5054159;28;20037;-53
2023/06/16 08:32:18;;;;;;;10.90;3.08;;;20.20;85.50;;;;;;5054104;28;20139;-53
2023/06/16 08:34:45;;;;;;;7.35;3.05;;;20.30;85.60;;;;;;5054572;28;20048;-54
2023/06/16 08:37:13;;;;;;;6.63;2.88;;;20.30;83.90;;;;;;5054280;28;20040;-50
2023/06/16 08:39:55;;;;;;;5.25;3.00;;;20.40;85.10;;;;;;5054429;28;20049;-49
2023/06/16 08:42:22;;;;;;;6.45;2.92;;;20.40;84.40;;;;;;5054067;28;20048;-51
2023/06/16 08:44:48;;;;;;;7.90;2.95;;;20.40;84.80;;;;;;5054014;28;20387;-49
2023/06/16 08:47:16;;;;;;;7.80;2.88;;;20.60;85.20;;;;;;5054513;28;20049;-51
2023/06/16 08:49:43;;;;;;;9.05;2.85;;;20.60;84.30;;;;;;5054020;28;20051;-50
2023/06/16 08:52:10;;;;;;;8.20;2.55;;;20.70;83.40;;;;;;5054272;28;20128;-53
2023/06/16 08:54:37;;;;;;;8.65;3.00;;;20.70;83.80;;;;;;5054247;28;20045;-51
2023/06/16 08:57:04;;;;;;;6.57;2.78;;;20.80;80.70;;;;;;5054057;28;20048;-52
2023/06/16 08:59:30;;;;;;;7.50;2.70;;;20.80;80.40;;;;;;5052238;28;20049;-55
2023/06/16 09:01:59;;;;;;;9.57;2.80;;;20.80;79.60;;;;;;5053748;28;20049;-51
2023/06/16 09:04:28;;;;;;;6.55;2.47;;;20.90;80.40;;;;;;5054282;28;20083;-53
2023/06/16 09:06:56;;;;;;;11.48;3.08;;;21.00;80.80;;;;;;5054075;28;20041;-47
2023/06/16 09:09:23;;;;;;;8.32;3.20;;;21.00;81.00;;;;;;5052973;28;20041;-48
2023/06/16 09:11:49;;;;;;;10.15;3.10;;;21.10;80.80;;;;;;5053818;28;20379;-54
2023/06/16 09:14:17;;;;;;;9.18;2.75;;;21.20;81.10;;;;;;5053515;28;20075;-50
2023/06/16 09:16:47;;;;;;;5.75;2.83;;;21.20;80.70;;;;;;5053811;28;20033;-54
2023/06/16 09:19:16;;;;;;;11.15;2.70;;;21.40;80.30;;;;;;5053486;28;20041;-52
2023/06/16 09:21:42;;;;;;;7.65;2.53;;;21.40;80.10;;;;;;5053647;28;20049;-53
2023/06/16 09:24:16;;;;;;;9.13;3.00;;;21.50;81.00;;;;;;5053567;28;20129;-49
2023/06/16 09:26:43;;;;;;;8.85;2.83;;;21.50;80.20;;;;;;5053720;28;20292;-49
2023/06/16 09:29:10;;;;;;;5.55;2.67;;;21.60;79.90;;;;;;5053246;28;20369;-52
2023/06/16 09:31:37;;;;;;;6.88;2.95;;;21.60;80.60;;;;;;5053490;28;20095;-52
2023/06/16 09:34:04;;;;;;;8.02;2.40;;;21.60;80.50;;;;;;5053413;28;20047;-49
2023/06/16 09:36:32;;;;;;;4.28;2.75;;;21.70;79.30;;;;;;5053509;28;20075;-50
2023/06/16 09:38:58;;;;;;;9.82;2.80;;;21.70;79.00;;;;;;5053755;28;20091;-47
2023/06/16 09:41:25;;;;;;;5.85;2.97;;;21.70;78.90;;;;;;5053466;28;20041;-52
2023/06/16 09:43:52;;;;;;;4.60;2.55;;;21.70;78.60;;;;;;5053491;28;20446;-53
2023/06/16 09:46:19;;;;;;;5.88;2.95;;;21.70;78.70;;;;;;5053577;28;20051;-49
2023/06/16 09:48:47;;;;;;;6.95;2.60;;;21.80;78.70;;;;;;5053722;28;20049;-52
2023/06/16 09:51:14;;;;;;;6.90;2.80;;;21.70;77.80;;;;;;5053635;28;20033;-49
2023/06/16 09:53:41;;;;;;;6.22;2.70;;;21.80;79.00;;;;;;5053045;28;20052;-46
2023/06/16 09:56:08;;;;;;;7.38;2.90;;;21.80;78.80;;;;;;5053534;28;20048;-46
2023/06/16 09:58:34;;;;;;;5.18;3.00;;;21.90;79.40;;;;;;5052969;28;20083;-46
2023/06/16 10:01:08;;;;;;;9.25;3.10;;;22.00;78.80;;;;;;5053043;28;20422;-47
2023/06/16 10:03:37;;;;;;;9.18;3.25;;;22.00;79.00;;;;;;5053018;28;20041;-49
2023/06/16 10:06:05;;;;;;;5.90;2.65;;;22.00;79.20;;;;;;5053011;28;20400;-51
2023/06/16 10:08:33;;;;;;;5.72;2.70;;;21.90;78.40;;;;;;5053226;28;20037;-50
2023/06/16 10:11:00;;;;;;;5.18;2.85;;;22.00;79.20;;;;;;5053415;28;20050;-50
2023/06/16 10:13:27;;;;;;;6.90;3.00;;;22.00;77.60;;;;;;5053095;28;20037;-50
2023/06/16 10:15:53;;;;;;;4.80;2.78;;;22.00;78.00;;;;;;5068432;28;20455;-48
2023/06/16 10:18:20;;;;;;;6.80;2.67;;;22.10;77.50;;;;;;5053323;28;20416;-47
2023/06/16 10:20:47;;;;;;;10.07;3.20;;;22.10;76.80;;;;;;5056466;28;20426;-52
2023/06/16 10:23:14;;;;;;;8.75;2.80;;;22.10;78.00;;;;;;5057124;28;20052;-47
2023/06/16 10:25:41;;;;;;;9.40;2.67;;;22.20;77.80;;;;;;5057063;28;20045;-49
2023/06/16 10:28:11;;;;;;;10.65;2.97;;;22.30;76.30;;;;;;5056985;28;20446;-54
2023/06/16 10:30:38;;;;;;;7.43;3.13;;;22.40;78.00;;;;;;5056752;28;20044;-49
2023/06/16 10:33:05;;;;;;;6.40;2.72;;;22.40;77.70;;;;;;5056723;28;20095;-48
2023/06/16 10:35:37;;;;;;;5.80;3.10;;;22.40;76.60;;;;;;5056775;28;20044;-51
2023/06/16 10:38:06;;;;;;;;;;;22.40;76.60;;;;;;5057029;28;20421;-50
2023/06/16 10:40:35;;;;;;;4.75;2.60;;;22.50;73.90;;;;;;5056747;28;20352;-47
2023/06/16 10:43:09;;;;;;;5.57;2.88;;;22.50;74.60;;;;;;5056331;28;20423;-49
2023/06/16 10:45:39;;;;;;;5.75;3.45;;;22.60;74.90;;;;;;5056526;28;20049;-49
2023/06/16 10:48:11;;;;;;;8.90;3.00;;;22.60;75.00;;;;;;5056431;28;20107;-51
2023/06/16 10:50:38;;;;;;;7.55;2.85;;;22.60;77.20;;;;;;5056547;28;20037;-52
2023/06/16 10:53:05;;;;;;;7.85;3.00;;;22.70;77.20;;;;;;5056162;28;20037;-51
2023/06/16 10:55:35;;;;;;;7.32;2.75;;;22.70;75.60;;;;;;5056558;28;20041;-51
2023/06/16 10:58:02;;;;;;;7.40;2.53;;;22.70;76.00;;;;;;5056459;28;20419;-48
2023/06/16 11:00:29;;;;;;;6.15;3.28;;;22.80;74.90;;;;;;5056491;28;20052;-49
2023/06/16 11:02:56;;;;;;;4.97;2.88;;;22.80;74.90;;;;;;5056021;28;20043;-51
2023/06/16 11:05:24;;;;;;;7.53;2.85;;;23.00;75.70;;;;;;5055845;28;20041;-53
2023/06/16 11:07:51;;;;;;;6.90;2.80;;;23.00;75.00;;;;;;5056393;28;20041;-53
2023/06/16 11:10:18;;;;;;;7.57;2.60;;;23.00;74.60;;;;;;5055910;28;20094;-50
2023/06/16 11:12:45;;;;;;;8.63;3.55;;;23.00;75.20;;;;;;5056322;28;20398;-53
2023/06/16 11:15:12;;;;;;;9.20;2.90;;;23.10;74.50;;;;;;5055787;28;20037;-51
2023/06/16 11:17:39;;;;;;;5.70;2.90;;;23.10;75.10;;;;;;5055938;28;20055;-54
2023/06/16 11:20:06;;;;;;;12.77;3.20;;;23.30;75.20;;;;;;5055618;28;20041;-51
2023/06/16 11:22:33;;;;;;;8.07;2.90;;;23.30;75.40;;;;;;5056027;28;20049;-51
2023/06/16 11:25:00;;;;;;;7.32;2.65;;;23.40;74.80;;;;;;5055751;28;20056;-51
2023/06/16 11:27:27;;;;;;;8.07;3.30;;;23.50;75.20;;;;;;5055487;28;20392;-48
2023/06/16 11:29:54;;;;;;;9.10;3.40;;;23.50;75.20;;;;;;5055729;28;20043;-52
2023/06/16 11:32:21;;;;;;;4.10;2.85;;;23.60;74.60;;;;;;5054724;28;20033;-51
2023/06/16 11:34:48;;;;;;;7.20;2.90;;;23.70;74.60;;;;;;5055629;28;20128;-52
2023/06/16 11:37:14;;;;;;;9.80;2.90;;;23.80;75.00;;;;;;5055562;28;20041;-50
2023/06/16 11:39:41;;;;;;;6.07;2.95;;;23.70;74.80;;;;;;5054668;28;20094;-48
2023/06/16 11:42:08;;;;;;;6.28;3.22;;;23.80;75.00;;;;;;5055152;28;20079;-52
2023/06/16 11:44:35;;;;;;;10.73;3.00;;;23.80;74.30;;;;;;5055225;28;20523;-52
2023/06/16 11:47:01;;;;;;;7.28;3.05;;;23.70;74.20;;;;;;5055355;28;20515;-51
2023/06/16 11:49:28;;;;;;;6.50;2.78;;;23.70;74.50;;;;;;5055592;28;20064;-51
2023/06/16 11:52:01;;;;;;;8.15;2.92;;;23.80;75.30;;;;;;5055167;28;20044;-52
2023/06/16 11:54:27;;;;;;;4.20;2.95;;;23.90;75.00;;;;;;5055136;28;20045;-49
2023/06/16 11:56:54;;;;;;;10.13;3.45;;;24.00;74.30;;;;;;5055216;28;20048;-53
2023/06/16 11:59:23;;;;;;;9.43;3.30;;;23.90;74.30;;;;;;5054967;28;20057;-55
2023/06/16 12:01:50;;;;;;;5.75;3.03;;;23.90;74.00;;;;;;5055281;28;20076;-54
2023/06/16 12:04:17;;;;;;;4.93;2.78;;;23.90;74.70;;;;;;5054856;28;20111;-53
2023/06/16 12:06:45;;;;;;;11.07;3.30;;;24.00;74.20;;;;;;5055136;28;20045;-50
2023/06/16 12:09:13;;;;;;;7.30;2.90;;;24.10;74.60;;;;;;5055255;28;20495;-51
2023/06/16 12:11:46;;;;;;;6.85;2.67;;;24.10;74.10;;;;;;5054659;28;20045;-51
2023/06/16 12:14:13;;;;;;;4.60;2.60;;;24.10;73.00;;;;;;5054923;28;20099;-51
2023/06/16 12:16:40;;;;;;;6.55;2.90;;;24.10;73.00;;;;;;5053876;28;20531;-51
2023/06/16 12:19:06;;;;;;;7.25;3.08;;;24.10;73.10;;;;;;5054782;28;20049;-53
2023/06/16 12:21:33;;;;;;;5.20;3.00;;;24.10;73.60;;;;;;5054525;28;20060;-53
2023/06/16 12:24:00;;;;;;;10.45;3.20;;;24.10;73.80;;;;;;5054228;28;20057;-54
2023/06/16 12:26:27;;;;;;;10.68;3.00;;;24.20;73.90;;;;;;5054925;28;20041;-55
2023/06/16 12:28:54;;;;;;;8.00;3.33;;;24.20;73.40;;;;;;5054580;28;20041;-53
2023/06/16 12:31:21;;;;;;;8.18;2.90;;;24.30;74.10;;;;;;5054304;28;20112;-51
2023/06/16 12:33:48;;;;;;;6.78;3.00;;;24.40;73.80;;;;;;5053552;28;20045;-54
2023/06/16 12:36:15;;;;;;;5.50;2.90;;;24.40;71.80;;;;;;5054375;28;20041;-52
2023/06/16 12:38:42;;;;;;;7.45;3.10;;;24.30;71.60;;;;;;5054687;28;20056;-51
2023/06/16 12:41:09;;;;;;;6.13;2.67;;;24.30;71.80;;;;;;5053226;28;20045;-51
2023/06/16 12:43:36;;;;;;;8.80;2.72;;;24.30;71.90;;;;;;5054121;28;20460;-54
2023/06/16 12:46:03;;;;;;;7.25;2.95;;;24.30;72.50;;;;;;5054489;28;20056;-55